sensor_id;sensor_type;location;lat;lon;timestamp;P1;durP1;ratioP1;P2;durP2;ratioP2
39344;SDS011;25061;51.954;6.996;2023-08-21T04:31:49;8.35;;;3.20;;
39344;SDS011;25061;51.954;6.996;2023-08-21T04:34:14;12.15;;;3.50;;
39344;SDS011;25061;51.954;6.996;2023-08-21T04:36:40;10.10;;;3.50;;
39344;SDS011;25061;51.954;6.996;2023-08-21T04:39:05;10.98;;;3.65;;
39344;SDS011;25061;51.954;6.996;2023-08-21T04:41:31;8.25;;;3.38;;
39344;SDS011;25061;51.954;6.996;2023-08-21T04:43:57;13.48;;;3.40;;
39344;SDS011;25061;51.954;6.996;2023-08-21T04:46:22;9.85;;;3.20;;
39344;SDS011;25061;51.954;6.996;2023-08-21T04:48:48;11.65;;;3.65;;
39344;SDS011;25061;51.954;6.996;2023-08-21T04:51:13;12.98;;;3.58;;
39344;SDS011;25061;51.954;6.996;2023-08-21T04:53:39;11.30;;;3.60;;
39344;SDS011;25061;51.954;6.996;2023-08-21T04:56:05;11.88;;;3.05;;
39344;SDS011;25061;51.954;6.996;2023-08-21T04:58:31;12.95;;;3.97;;
39344;SDS011;25061;51.954;6.996;2023-08-21T05:00:56;10.45;;;2.80;;
39344;SDS011;25061;51.954;6.996;2023-08-21T05:03:22;11.25;;;3.72;;
39344;SDS011;25061;51.954;6.996;2023-08-21T05:05:57;10.18;;;3.20;;
39344;SDS011;25061;51.954;6.996;2023-08-21T05:08:23;10.65;;;3.30;;
39344;SDS011;25061;51.954;6.996;2023-08-21T05:10:56;9.68;;;3.45;;
39344;SDS011;25061;51.954;6.996;2023-08-21T05:13:25;10.02;;;2.90;;
39344;SDS011;25061;51.954;6.996;2023-08-21T05:15:52;9.13;;;3.13;;
39344;SDS011;25061;51.954;6.996;2023-08-21T05:18:22;13.48;;;3.15;;
39344;SDS011;25061;51.954;6.996;2023-08-21T05:20:48;12.77;;;3.38;;
39344;SDS011;25061;51.954;6.996;2023-08-21T05:23:15;10.43;;;3.80;;
39344;SDS011;25061;51.954;6.996;2023-08-21T05:25:41;13.32;;;3.42;;
39344;SDS011;25061;51.954;6.996;2023-08-21T05:28:10;12.25;;;3.40;;
39344;SDS011;25061;51.954;6.996;2023-08-21T05:30:36;10.20;;;3.50;;
39344;SDS011;25061;51.954;6.996;2023-08-21T05:33:02;13.88;;;3.10;;
39344;SDS011;25061;51.954;6.996;2023-08-21T05:35:28;10.95;;;3.30;;
39344;SDS011;25061;51.954;6.996;2023-08-21T05:37:58;9.82;;;3.50;;
39344;SDS011;25061;51.954;6.996;2023-08-21T05:40:24;12.35;;;3.30;;
39344;SDS011;25061;51.954;6.996;2023-08-21T05:42:50;9.88;;;3.40;;
39344;SDS011;25061;51.954;6.996;2023-08-21T05:45:16;12.13;;;3.80;;
39344;SDS011;25061;51.954;6.996;2023-08-21T05:47:42;12.27;;;3.63;;
39344;SDS011;25061;51.954;6.996;2023-08-21T05:50:07;9.93;;;3.60;;
39344;SDS011;25061;51.954;6.996;2023-08-21T05:52:34;12.02;;;3.30;;
39344;SDS011;25061;51.954;6.996;2023-08-21T05:54:59;11.15;;;3.95;;
39344;SDS011;25061;51.954;6.996;2023-08-21T05:57:25;11.38;;;3.67;;
39344;SDS011;25061;51.954;6.996;2023-08-21T05:59:50;11.27;;;3.33;;
39344;SDS011;25061;51.954;6.996;2023-08-21T06:02:16;11.95;;;3.67;;
39344;SDS011;25061;51.954;6.996;2023-08-21T06:04:42;10.95;;;3.70;;
39344;SDS011;25061;51.954;6.996;2023-08-21T06:07:08;12.32;;;3.50;;
39344;SDS011;25061;51.954;6.996;2023-08-21T06:09:36;11.35;;;3.60;;
39344;SDS011;25061;51.954;6.996;2023-08-21T06:12:04;9.13;;;3.42;;
39344;SDS011;25061;51.954;6.996;2023-08-21T06:14:30;10.13;;;3.50;;
39344;SDS011;25061;51.954;6.996;2023-08-21T06:16:59;13.75;;;3.60;;
39344;SDS011;25061;51.954;6.996;2023-08-21T06:19:26;11.60;;;3.60;;
39344;SDS011;25061;51.954;6.996;2023-08-21T06:21:52;12.80;;;3.15;;
39344;SDS011;25061;51.954;6.996;2023-08-21T06:24:18;10.68;;;3.30;;
39344;SDS011;25061;51.954;6.996;2023-08-21T06:26:43;10.32;;;3.17;;
39344;SDS011;25061;51.954;6.996;2023-08-21T06:29:09;13.68;;;3.15;;
39344;SDS011;25061;51.954;6.996;2023-08-21T06:31:34;11.20;;;3.10;;
39344;SDS011;25061;51.954;6.996;2023-08-21T06:34:00;11.05;;;3.30;;
39344;SDS011;25061;51.954;6.996;2023-08-21T06:36:26;13.80;;;3.28;;
39344;SDS011;25061;51.954;6.996;2023-08-21T06:38:51;10.27;;;2.72;;
39344;SDS011;25061;51.954;6.996;2023-08-21T06:41:17;10.18;;;2.67;;
39344;SDS011;25061;51.954;6.996;2023-08-21T06:43:42;12.98;;;2.97;;
39344;SDS011;25061;51.954;6.996;2023-08-21T06:46:08;13.88;;;2.85;;
39344;SDS011;25061;51.954;6.996;2023-08-21T06:48:34;11.38;;;2.97;;
39344;SDS011;25061;51.954;6.996;2023-08-21T06:51:02;11.32;;;2.58;;
39344;SDS011;25061;51.954;6.996;2023-08-21T06:53:28;10.30;;;2.63;;
39344;SDS011;25061;51.954;6.996;2023-08-21T06:55:54;12.57;;;3.15;;
39344;SDS011;25061;51.954;6.996;2023-08-21T06:58:19;11.70;;;2.85;;
39344;SDS011;25061;51.954;6.996;2023-08-21T07:00:46;9.40;;;2.38;;
39344;SDS011;25061;51.954;6.996;2023-08-21T07:03:11;17.17;;;2.55;;
39344;SDS011;25061;51.954;6.996;2023-08-21T07:05:37;10.18;;;2.42;;
39344;SDS011;25061;51.954;6.996;2023-08-21T07:08:03;9.20;;;2.22;;
39344;SDS011;25061;51.954;6.996;2023-08-21T07:10:29;10.50;;;2.50;;
39344;SDS011;25061;51.954;6.996;2023-08-21T07:12:55;12.85;;;2.75;;
39344;SDS011;25061;51.954;6.996;2023-08-21T07:15:20;10.25;;;2.42;;
39344;SDS011;25061;51.954;6.996;2023-08-21T07:17:46;9.77;;;2.42;;
39344;SDS011;25061;51.954;6.996;2023-08-21T07:20:12;8.82;;;2.10;;
39344;SDS011;25061;51.954;6.996;2023-08-21T07:22:38;10.27;;;2.22;;
39344;SDS011;25061;51.954;6.996;2023-08-21T07:25:04;12.93;;;2.20;;
39344;SDS011;25061;51.954;6.996;2023-08-21T07:27:30;9.40;;;2.17;;
39344;SDS011;25061;51.954;6.996;2023-08-21T07:29:56;10.82;;;2.08;;
39344;SDS011;25061;51.954;6.996;2023-08-21T07:32:22;12.73;;;2.33;;
39344;SDS011;25061;51.954;6.996;2023-08-21T07:34:52;8.75;;;2.15;;
39344;SDS011;25061;51.954;6.996;2023-08-21T07:37:19;11.77;;;2.10;;
39344;SDS011;25061;51.954;6.996;2023-08-21T07:39:45;8.60;;;1.92;;
39344;SDS011;25061;51.954;6.996;2023-08-21T07:42:11;17.13;;;2.75;;
39344;SDS011;25061;51.954;6.996;2023-08-21T07:44:38;10.73;;;2.20;;
39344;SDS011;25061;51.954;6.996;2023-08-21T07:47:05;10.45;;;2.13;;
39344;SDS011;25061;51.954;6.996;2023-08-21T07:49:31;11.82;;;2.58;;
39344;SDS011;25061;51.954;6.996;2023-08-21T07:51:57;13.30;;;2.55;;
39344;SDS011;25061;51.954;6.996;2023-08-21T07:54:22;9.13;;;2.03;;
39344;SDS011;25061;51.954;6.996;2023-08-21T07:56:49;9.55;;;2.58;;
39344;SDS011;25061;51.954;6.996;2023-08-21T07:59:15;12.23;;;2.42;;
39344;SDS011;25061;51.954;6.996;2023-08-21T08:01:41;12.68;;;2.22;;
39344;SDS011;25061;51.954;6.996;2023-08-21T08:04:07;11.55;;;2.20;;
39344;SDS011;25061;51.954;6.996;2023-08-21T08:06:33;10.02;;;2.05;;
39344;SDS011;25061;51.954;6.996;2023-08-21T08:08:59;13.20;;;2.00;;
39344;SDS011;25061;51.954;6.996;2023-08-21T08:11:25;12.40;;;2.25;;
39344;SDS011;25061;51.954;6.996;2023-08-21T08:13:50;11.55;;;1.90;;
39344;SDS011;25061;51.954;6.996;2023-08-21T08:16:16;11.32;;;1.80;;
39344;SDS011;25061;51.954;6.996;2023-08-21T08:18:42;13.10;;;2.08;;
39344;SDS011;25061;51.954;6.996;2023-08-21T08:21:07;8.23;;;1.80;;
39344;SDS011;25061;51.954;6.996;2023-08-21T08:23:34;9.02;;;1.88;;
39344;SDS011;25061;51.954;6.996;2023-08-21T08:25:59;13.68;;;2.35;;
39344;SDS011;25061;51.954;6.996;2023-08-21T08:28:25;9.80;;;2.05;;
39344;SDS011;25061;51.954;6.996;2023-08-21T08:30:51;10.82;;;1.92;;
39344;SDS011;25061;51.954;6.996;2023-08-21T08:33:16;10.30;;;2.13;;
39344;SDS011;25061;51.954;6.996;2023-08-21T08:35:42;8.35;;;1.80;;
39344;SDS011;25061;51.954;6.996;2023-08-21T08:38:08;9.85;;;1.92;;
39344;SDS011;25061;51.954;6.996;2023-08-21T08:40:34;12.02;;;2.30;;
39344;SDS011;25061;51.954;6.996;2023-08-21T08:43:06;11.65;;;1.88;;
39344;SDS011;25061;51.954;6.996;2023-08-21T08:45:32;9.18;;;1.77;;
39344;SDS011;25061;51.954;6.996;2023-08-21T08:48:00;12.15;;;1.90;;
39344;SDS011;25061;51.954;6.996;2023-08-21T08:50:28;7.07;;;1.75;;
39344;SDS011;25061;51.954;6.996;2023-08-21T08:52:58;12.82;;;2.60;;
39344;SDS011;25061;51.954;6.996;2023-08-21T08:55:24;7.15;;;1.65;;
39344;SDS011;25061;51.954;6.996;2023-08-21T08:57:51;12.27;;;2.28;;
39344;SDS011;25061;51.954;6.996;2023-08-21T09:00:17;9.70;;;1.90;;
39344;SDS011;25061;51.954;6.996;2023-08-21T09:02:43;12.65;;;2.15;;
39344;SDS011;25061;51.954;6.996;2023-08-21T09:05:08;9.75;;;1.75;;
39344;SDS011;25061;51.954;6.996;2023-08-21T09:07:35;8.60;;;1.73;;
39344;SDS011;25061;51.954;6.996;2023-08-21T09:10:01;7.95;;;1.50;;
39344;SDS011;25061;51.954;6.996;2023-08-21T09:12:28;9.45;;;2.03;;
39344;SDS011;25061;51.954;6.996;2023-08-21T09:14:57;9.15;;;2.15;;
39344;SDS011;25061;51.954;6.996;2023-08-21T09:17:24;9.40;;;1.63;;
39344;SDS011;25061;51.954;6.996;2023-08-21T09:19:51;9.63;;;1.77;;
39344;SDS011;25061;51.954;6.996;2023-08-21T09:22:17;8.18;;;2.08;;
39344;SDS011;25061;51.954;6.996;2023-08-21T09:27:31;11.50;;;2.40;;
39344;SDS011;25061;51.954;6.996;2023-08-21T09:30:05;8.20;;;1.92;;
39344;SDS011;25061;51.954;6.996;2023-08-21T09:32:53;10.95;;;1.70;;
39344;SDS011;25061;51.954;6.996;2023-08-21T09:35:21;9.18;;;1.50;;
39344;SDS011;25061;51.954;6.996;2023-08-21T09:37:47;11.73;;;2.33;;
39344;SDS011;25061;51.954;6.996;2023-08-21T09:40:13;11.23;;;1.70;;
39344;SDS011;25061;51.954;6.996;2023-08-21T09:42:41;7.20;;;1.83;;
39344;SDS011;25061;51.954;6.996;2023-08-21T09:45:07;10.07;;;2.25;;
39344;SDS011;25061;51.954;6.996;2023-08-21T09:47:33;8.73;;;2.22;;
39344;SDS011;25061;51.954;6.996;2023-08-21T09:49:59;9.75;;;1.67;;
39344;SDS011;25061;51.954;6.996;2023-08-21T09:52:26;12.23;;;2.00;;
39344;SDS011;25061;51.954;6.996;2023-08-21T09:54:55;9.60;;;1.77;;
39344;SDS011;25061;51.954;6.996;2023-08-21T09:57:23;7.90;;;1.60;;
39344;SDS011;25061;51.954;6.996;2023-08-21T09:59:52;8.93;;;1.70;;
39344;SDS011;25061;51.954;6.996;2023-08-21T10:02:19;8.98;;;1.83;;
39344;SDS011;25061;51.954;6.996;2023-08-21T10:04:45;9.82;;;1.90;;
39344;SDS011;25061;51.954;6.996;2023-08-21T10:07:13;10.48;;;2.00;;
39344;SDS011;25061;51.954;6.996;2023-08-21T10:09:41;9.15;;;1.80;;
39344;SDS011;25061;51.954;6.996;2023-08-21T10:12:11;9.73;;;1.80;;
39344;SDS011;25061;51.954;6.996;2023-08-21T10:14:39;10.90;;;1.90;;
39344;SDS011;25061;51.954;6.996;2023-08-21T10:17:06;10.00;;;1.92;;
39344;SDS011;25061;51.954;6.996;2023-08-21T10:19:33;11.98;;;1.90;;
39344;SDS011;25061;51.954;6.996;2023-08-21T10:22:00;8.65;;;2.03;;
39344;SDS011;25061;51.954;6.996;2023-08-21T10:24:26;11.23;;;1.90;;
39344;SDS011;25061;51.954;6.996;2023-08-21T10:27:00;10.63;;;2.33;;
39344;SDS011;25061;51.954;6.996;2023-08-21T10:29:26;7.85;;;1.63;;
39344;SDS011;25061;51.954;6.996;2023-08-21T10:31:58;10.65;;;1.75;;
39344;SDS011;25061;51.954;6.996;2023-08-21T10:34:37;10.95;;;2.10;;
39344;SDS011;25061;51.954;6.996;2023-08-21T10:39:31;9.15;;;1.90;;
39344;SDS011;25061;51.954;6.996;2023-08-21T10:42:05;9.88;;;2.15;;
39344;SDS011;25061;51.954;6.996;2023-08-21T10:47:14;10.23;;;2.13;;
39344;SDS011;25061;51.954;6.996;2023-08-21T10:49:40;10.15;;;1.88;;
39344;SDS011;25061;51.954;6.996;2023-08-21T10:52:07;12.10;;;2.25;;
39344;SDS011;25061;51.954;6.996;2023-08-21T10:54:46;11.05;;;2.45;;
39344;SDS011;25061;51.954;6.996;2023-08-21T10:57:13;12.05;;;2.30;;
39344;SDS011;25061;51.954;6.996;2023-08-21T10:59:45;9.98;;;2.40;;
39344;SDS011;25061;51.954;6.996;2023-08-21T11:02:22;12.98;;;2.30;;
39344;SDS011;25061;51.954;6.996;2023-08-21T11:04:49;9.48;;;1.90;;
39344;SDS011;25061;51.954;6.996;2023-08-21T11:07:15;11.32;;;2.13;;
39344;SDS011;25061;51.954;6.996;2023-08-21T11:09:41;10.82;;;2.20;;
39344;SDS011;25061;51.954;6.996;2023-08-21T11:12:11;11.25;;;2.00;;
39344;SDS011;25061;51.954;6.996;2023-08-21T11:14:38;9.77;;;1.95;;
39344;SDS011;25061;51.954;6.996;2023-08-21T11:17:04;8.20;;;2.05;;
39344;SDS011;25061;51.954;6.996;2023-08-21T11:19:30;11.80;;;2.35;;
39344;SDS011;25061;51.954;6.996;2023-08-21T11:21:56;12.60;;;2.20;;
39344;SDS011;25061;51.954;6.996;2023-08-21T11:24:29;11.55;;;2.47;;
39344;SDS011;25061;51.954;6.996;2023-08-21T11:26:58;8.32;;;1.88;;
39344;SDS011;25061;51.954;6.996;2023-08-21T11:29:24;9.90;;;2.08;;
39344;SDS011;25061;51.954;6.996;2023-08-21T11:31:50;8.88;;;2.13;;
39344;SDS011;25061;51.954;6.996;2023-08-21T11:34:19;8.65;;;1.80;;
39344;SDS011;25061;51.954;6.996;2023-08-21T11:36:46;7.55;;;1.90;;
39344;SDS011;25061;51.954;6.996;2023-08-21T11:39:12;9.57;;;1.70;;
39344;SDS011;25061;51.954;6.996;2023-08-21T11:41:56;8.13;;;1.70;;
39344;SDS011;25061;51.954;6.996;2023-08-21T11:44:22;10.23;;;1.98;;
39344;SDS011;25061;51.954;6.996;2023-08-21T11:46:50;9.57;;;1.70;;
39344;SDS011;25061;51.954;6.996;2023-08-21T11:49:17;8.13;;;1.80;;
39344;SDS011;25061;51.954;6.996;2023-08-21T11:51:44;8.38;;;1.65;;
39344;SDS011;25061;51.954;6.996;2023-08-21T11:54:10;6.47;;;1.58;;
39344;SDS011;25061;51.954;6.996;2023-08-21T11:56:36;10.60;;;1.95;;
39344;SDS011;25061;51.954;6.996;2023-08-21T11:59:04;6.35;;;1.58;;
39344;SDS011;25061;51.954;6.996;2023-08-21T12:01:32;8.18;;;1.52;;
39344;SDS011;25061;51.954;6.996;2023-08-21T12:03:59;6.43;;;1.50;;
39344;SDS011;25061;51.954;6.996;2023-08-21T12:06:24;7.07;;;1.50;;
39344;SDS011;25061;51.954;6.996;2023-08-21T12:08:50;9.18;;;1.50;;
39344;SDS011;25061;51.954;6.996;2023-08-21T12:11:16;8.25;;;1.60;;
39344;SDS011;25061;51.954;6.996;2023-08-21T12:13:43;10.20;;;1.60;;
39344;SDS011;25061;51.954;6.996;2023-08-21T12:16:09;7.05;;;1.50;;
39344;SDS011;25061;51.954;6.996;2023-08-21T12:18:34;8.32;;;1.60;;
39344;SDS011;25061;51.954;6.996;2023-08-21T12:21:00;8.73;;;1.48;;
39344;SDS011;25061;51.954;6.996;2023-08-21T12:23:26;7.35;;;1.70;;
39344;SDS011;25061;51.954;6.996;2023-08-21T12:25:51;7.57;;;1.60;;
39344;SDS011;25061;51.954;6.996;2023-08-21T12:28:17;5.88;;;1.67;;
39344;SDS011;25061;51.954;6.996;2023-08-21T12:30:42;7.75;;;1.60;;
39344;SDS011;25061;51.954;6.996;2023-08-21T12:33:08;8.95;;;1.65;;
39344;SDS011;25061;51.954;6.996;2023-08-21T12:35:33;10.02;;;1.83;;
39344;SDS011;25061;51.954;6.996;2023-08-21T12:37:59;6.50;;;1.80;;
39344;SDS011;25061;51.954;6.996;2023-08-21T12:40:30;6.75;;;1.77;;
39344;SDS011;25061;51.954;6.996;2023-08-21T12:42:56;7.78;;;1.65;;
39344;SDS011;25061;51.954;6.996;2023-08-21T12:45:22;6.40;;;1.58;;
39344;SDS011;25061;51.954;6.996;2023-08-21T12:47:47;8.23;;;1.70;;
39344;SDS011;25061;51.954;6.996;2023-08-21T12:50:13;8.07;;;1.70;;
39344;SDS011;25061;51.954;6.996;2023-08-21T12:52:39;7.00;;;1.65;;
39344;SDS011;25061;51.954;6.996;2023-08-21T12:55:06;6.88;;;1.48;;
39344;SDS011;25061;51.954;6.996;2023-08-21T12:57:32;4.60;;;1.25;;
39344;SDS011;25061;51.954;6.996;2023-08-21T12:59:57;8.82;;;1.80;;
39344;SDS011;25061;51.954;6.996;2023-08-21T13:02:23;5.97;;;1.67;;
39344;SDS011;25061;51.954;6.996;2023-08-21T13:04:49;8.98;;;1.48;;
39344;SDS011;25061;51.954;6.996;2023-08-21T13:07:15;7.45;;;1.60;;
39344;SDS011;25061;51.954;6.996;2023-08-21T13:09:40;8.77;;;1.70;;
39344;SDS011;25061;51.954;6.996;2023-08-21T13:12:06;7.30;;;1.63;;
39344;SDS011;25061;51.954;6.996;2023-08-21T13:14:33;8.93;;;1.40;;
39344;SDS011;25061;51.954;6.996;2023-08-21T13:16:59;6.68;;;1.50;;
39344;SDS011;25061;51.954;6.996;2023-08-21T13:19:24;9.15;;;1.40;;
39344;SDS011;25061;51.954;6.996;2023-08-21T13:21:50;5.82;;;1.40;;
39344;SDS011;25061;51.954;6.996;2023-08-21T13:24:16;7.18;;;1.35;;
39344;SDS011;25061;51.954;6.996;2023-08-21T13:26:41;6.95;;;1.70;;
39344;SDS011;25061;51.954;6.996;2023-08-21T13:29:07;7.90;;;1.50;;
39344;SDS011;25061;51.954;6.996;2023-08-21T13:31:33;10.02;;;1.52;;
39344;SDS011;25061;51.954;6.996;2023-08-21T13:33:58;6.35;;;1.60;;
39344;SDS011;25061;51.954;6.996;2023-08-21T13:36:25;7.45;;;1.70;;
39344;SDS011;25061;51.954;6.996;2023-08-21T13:38:50;6.70;;;1.80;;
39344;SDS011;25061;51.954;6.996;2023-08-21T13:41:16;8.40;;;1.40;;
39344;SDS011;25061;51.954;6.996;2023-08-21T13:43:42;9.00;;;1.67;;
39344;SDS011;25061;51.954;6.996;2023-08-21T13:46:08;5.78;;;1.45;;
39344;SDS011;25061;51.954;6.996;2023-08-21T13:48:34;7.90;;;1.58;;
39344;SDS011;25061;51.954;6.996;2023-08-21T13:50:59;6.32;;;1.80;;
39344;SDS011;25061;51.954;6.996;2023-08-21T13:53:25;6.00;;;1.60;;
39344;SDS011;25061;51.954;6.996;2023-08-21T13:55:50;8.82;;;1.67;;
39344;SDS011;25061;51.954;6.996;2023-08-21T13:58:16;6.72;;;1.73;;
39344;SDS011;25061;51.954;6.996;2023-08-21T14:00:42;13.77;;;1.92;;
39344;SDS011;25061;51.954;6.996;2023-08-21T14:03:07;5.20;;;1.30;;
39344;SDS011;25061;51.954;6.996;2023-08-21T14:05:33;7.13;;;1.50;;
39344;SDS011;25061;51.954;6.996;2023-08-21T14:07:59;8.63;;;1.90;;
39344;SDS011;25061;51.954;6.996;2023-08-21T14:10:25;7.93;;;2.05;;
39344;SDS011;25061;51.954;6.996;2023-08-21T14:12:51;7.15;;;1.88;;
39344;SDS011;25061;51.954;6.996;2023-08-21T14:15:17;7.50;;;1.73;;
39344;SDS011;25061;51.954;6.996;2023-08-21T14:17:43;7.03;;;1.83;;
39344;SDS011;25061;51.954;6.996;2023-08-21T14:20:09;6.05;;;1.60;;
39344;SDS011;25061;51.954;6.996;2023-08-21T14:22:36;6.18;;;1.90;;
39344;SDS011;25061;51.954;6.996;2023-08-21T14:25:02;9.48;;;1.80;;
39344;SDS011;25061;51.954;6.996;2023-08-21T14:27:30;5.70;;;1.33;;
39344;SDS011;25061;51.954;6.996;2023-08-21T14:29:56;8.23;;;1.70;;
39344;SDS011;25061;51.954;6.996;2023-08-21T14:32:22;9.95;;;2.08;;
39344;SDS011;25061;51.954;6.996;2023-08-21T14:34:48;11.02;;;2.10;;
39344;SDS011;25061;51.954;6.996;2023-08-21T14:37:13;9.25;;;1.98;;
39344;SDS011;25061;51.954;6.996;2023-08-21T14:39:40;8.35;;;1.80;;
39344;SDS011;25061;51.954;6.996;2023-08-21T14:42:09;7.20;;;1.95;;
39344;SDS011;25061;51.954;6.996;2023-08-21T14:44:36;9.25;;;1.80;;
39344;SDS011;25061;51.954;6.996;2023-08-21T14:47:02;6.25;;;1.77;;
39344;SDS011;25061;51.954;6.996;2023-08-21T14:49:28;9.18;;;2.80;;
39344;SDS011;25061;51.954;6.996;2023-08-21T14:51:54;9.52;;;2.53;;
39344;SDS011;25061;51.954;6.996;2023-08-21T14:54:22;9.18;;;2.30;;
39344;SDS011;25061;51.954;6.996;2023-08-21T14:56:48;6.97;;;2.20;;
39344;SDS011;25061;51.954;6.996;2023-08-21T14:59:14;13.23;;;4.78;;
39344;SDS011;25061;51.954;6.996;2023-08-21T15:01:40;10.73;;;4.00;;
39344;SDS011;25061;51.954;6.996;2023-08-21T15:04:06;8.20;;;3.20;;
39344;SDS011;25061;51.954;6.996;2023-08-21T15:06:32;8.50;;;2.58;;
39344;SDS011;25061;51.954;6.996;2023-08-21T15:09:03;10.90;;;3.40;;
39344;SDS011;25061;51.954;6.996;2023-08-21T15:11:30;8.30;;;2.55;;
39344;SDS011;25061;51.954;6.996;2023-08-21T15:13:55;10.23;;;2.97;;
39344;SDS011;25061;51.954;6.996;2023-08-21T15:16:21;7.43;;;2.63;;
39344;SDS011;25061;51.954;6.996;2023-08-21T15:18:47;7.35;;;2.10;;
39344;SDS011;25061;51.954;6.996;2023-08-21T15:21:16;8.90;;;2.20;;
39344;SDS011;25061;51.954;6.996;2023-08-21T15:23:42;8.02;;;2.22;;
39344;SDS011;25061;51.954;6.996;2023-08-21T15:26:07;5.43;;;2.15;;
39344;SDS011;25061;51.954;6.996;2023-08-21T15:28:33;7.88;;;2.42;;
39344;SDS011;25061;51.954;6.996;2023-08-21T15:30:58;8.57;;;2.30;;
39344;SDS011;25061;51.954;6.996;2023-08-21T15:33:24;10.18;;;2.42;;
39344;SDS011;25061;51.954;6.996;2023-08-21T15:35:50;8.35;;;2.40;;
39344;SDS011;25061;51.954;6.996;2023-08-21T15:38:15;11.43;;;2.70;;
39344;SDS011;25061;51.954;6.996;2023-08-21T15:40:41;9.32;;;2.28;;
39344;SDS011;25061;51.954;6.996;2023-08-21T15:43:07;8.73;;;2.10;;
39344;SDS011;25061;51.954;6.996;2023-08-21T15:45:33;7.72;;;2.45;;
39344;SDS011;25061;51.954;6.996;2023-08-21T15:47:58;9.50;;;2.78;;
39344;SDS011;25061;51.954;6.996;2023-08-21T15:50:24;8.63;;;2.42;;
39344;SDS011;25061;51.954;6.996;2023-08-21T15:52:50;9.23;;;2.67;;
39344;SDS011;25061;51.954;6.996;2023-08-21T15:55:16;10.80;;;2.88;;
39344;SDS011;25061;51.954;6.996;2023-08-21T15:57:41;11.80;;;3.35;;
39344;SDS011;25061;51.954;6.996;2023-08-21T16:00:09;9.45;;;2.80;;
39344;SDS011;25061;51.954;6.996;2023-08-21T16:02:36;8.60;;;2.80;;
39344;SDS011;25061;51.954;6.996;2023-08-21T16:05:02;9.38;;;3.13;;
39344;SDS011;25061;51.954;6.996;2023-08-21T16:07:29;8.73;;;2.70;;
39344;SDS011;25061;51.954;6.996;2023-08-21T16:09:55;10.82;;;2.88;;
39344;SDS011;25061;51.954;6.996;2023-08-21T16:12:21;9.93;;;2.63;;
39344;SDS011;25061;51.954;6.996;2023-08-21T16:14:46;9.70;;;2.70;;
39344;SDS011;25061;51.954;6.996;2023-08-21T16:17:13;9.27;;;2.78;;
39344;SDS011;25061;51.954;6.996;2023-08-21T16:19:39;7.97;;;2.55;;
39344;SDS011;25061;51.954;6.996;2023-08-21T16:22:05;6.88;;;2.78;;
39344;SDS011;25061;51.954;6.996;2023-08-21T16:24:31;9.65;;;2.78;;
39344;SDS011;25061;51.954;6.996;2023-08-21T16:26:56;9.57;;;2.22;;
39344;SDS011;25061;51.954;6.996;2023-08-21T16:29:22;8.57;;;3.35;;
39344;SDS011;25061;51.954;6.996;2023-08-21T16:31:48;27.50;;;17.63;;
39344;SDS011;25061;51.954;6.996;2023-08-21T16:34:20;9.20;;;3.30;;
39344;SDS011;25061;51.954;6.996;2023-08-21T16:36:45;8.77;;;3.00;;
39344;SDS011;25061;51.954;6.996;2023-08-21T16:39:11;8.85;;;3.05;;
39344;SDS011;25061;51.954;6.996;2023-08-21T16:41:37;8.02;;;2.80;;
39344;SDS011;25061;51.954;6.996;2023-08-21T16:44:03;9.02;;;3.08;;
39344;SDS011;25061;51.954;6.996;2023-08-21T16:46:28;10.02;;;3.00;;
39344;SDS011;25061;51.954;6.996;2023-08-21T16:48:54;31.00;;;20.77;;
39344;SDS011;25061;51.954;6.996;2023-08-21T16:51:20;14.80;;;8.75;;
39344;SDS011;25061;51.954;6.996;2023-08-21T16:53:46;13.05;;;6.35;;
39344;SDS011;25061;51.954;6.996;2023-08-21T16:56:11;12.07;;;4.88;;
39344;SDS011;25061;51.954;6.996;2023-08-21T16:58:37;8.25;;;3.30;;
39344;SDS011;25061;51.954;6.996;2023-08-21T17:01:02;9.35;;;3.00;;
39344;SDS011;25061;51.954;6.996;2023-08-21T17:03:28;7.57;;;2.83;;
39344;SDS011;25061;51.954;6.996;2023-08-21T17:05:54;8.98;;;2.90;;
39344;SDS011;25061;51.954;6.996;2023-08-21T17:08:19;10.40;;;2.83;;
39344;SDS011;25061;51.954;6.996;2023-08-21T17:10:45;11.40;;;3.13;;
39344;SDS011;25061;51.954;6.996;2023-08-21T17:13:11;19.92;;;11.15;;
39344;SDS011;25061;51.954;6.996;2023-08-21T17:15:36;25.35;;;15.63;;
39344;SDS011;25061;51.954;6.996;2023-08-21T17:18:02;47.28;;;28.52;;
39344;SDS011;25061;51.954;6.996;2023-08-21T17:20:28;29.02;;;17.30;;
39344;SDS011;25061;51.954;6.996;2023-08-21T17:22:54;14.23;;;5.88;;
39344;SDS011;25061;51.954;6.996;2023-08-21T17:25:20;8.40;;;2.55;;
39344;SDS011;25061;51.954;6.996;2023-08-21T17:27:46;8.27;;;2.60;;
39344;SDS011;25061;51.954;6.996;2023-08-21T17:30:12;10.98;;;3.13;;
39344;SDS011;25061;51.954;6.996;2023-08-21T17:32:39;9.40;;;3.13;;
39344;SDS011;25061;51.954;6.996;2023-08-21T17:35:05;7.50;;;2.47;;
39344;SDS011;25061;51.954;6.996;2023-08-21T17:37:31;9.80;;;2.75;;
39344;SDS011;25061;51.954;6.996;2023-08-21T17:39:57;6.93;;;2.67;;
39344;SDS011;25061;51.954;6.996;2023-08-21T17:42:24;11.75;;;3.00;;
39344;SDS011;25061;51.954;6.996;2023-08-21T17:44:50;9.65;;;2.90;;
39344;SDS011;25061;51.954;6.996;2023-08-21T17:47:16;6.57;;;2.58;;
39344;SDS011;25061;51.954;6.996;2023-08-21T17:49:41;9.73;;;2.90;;
39344;SDS011;25061;51.954;6.996;2023-08-21T17:52:07;7.82;;;2.63;;
39344;SDS011;25061;51.954;6.996;2023-08-21T17:54:33;8.50;;;2.60;;
39344;SDS011;25061;51.954;6.996;2023-08-21T17:56:59;9.55;;;3.17;;
39344;SDS011;25061;51.954;6.996;2023-08-21T17:59:24;9.68;;;3.10;;
39344;SDS011;25061;51.954;6.996;2023-08-21T18:01:50;7.00;;;2.60;;
39344;SDS011;25061;51.954;6.996;2023-08-21T18:04:17;10.05;;;3.20;;
39344;SDS011;25061;51.954;6.996;2023-08-21T18:06:43;8.02;;;2.83;;
39344;SDS011;25061;51.954;6.996;2023-08-21T18:09:09;9.25;;;3.10;;
39344;SDS011;25061;51.954;6.996;2023-08-21T18:11:34;13.93;;;3.80;;
39344;SDS011;25061;51.954;6.996;2023-08-21T18:14:00;8.55;;;3.30;;
39344;SDS011;25061;51.954;6.996;2023-08-21T18:16:26;8.77;;;2.78;;
39344;SDS011;25061;51.954;6.996;2023-08-21T18:18:52;10.88;;;2.95;;
39344;SDS011;25061;51.954;6.996;2023-08-21T18:21:19;8.18;;;3.15;;
39344;SDS011;25061;51.954;6.996;2023-08-21T18:23:46;9.88;;;3.15;;
39344;SDS011;25061;51.954;6.996;2023-08-21T18:26:11;8.55;;;3.03;;
39344;SDS011;25061;51.954;6.996;2023-08-21T18:28:37;7.82;;;2.90;;
39344;SDS011;25061;51.954;6.996;2023-08-21T18:31:03;9.15;;;3.03;;
39344;SDS011;25061;51.954;6.996;2023-08-21T18:33:29;8.25;;;3.17;;
39344;SDS011;25061;51.954;6.996;2023-08-21T18:35:54;9.13;;;3.05;;
39344;SDS011;25061;51.954;6.996;2023-08-21T18:38:20;8.43;;;2.78;;
39344;SDS011;25061;51.954;6.996;2023-08-21T18:40:46;9.77;;;3.47;;
39344;SDS011;25061;51.954;6.996;2023-08-21T18:43:12;7.32;;;2.60;;
39344;SDS011;25061;51.954;6.996;2023-08-21T18:45:38;9.80;;;2.90;;
39344;SDS011;25061;51.954;6.996;2023-08-21T18:48:04;11.43;;;3.40;;
39344;SDS011;25061;51.954;6.996;2023-08-21T18:50:33;9.77;;;3.45;;
39344;SDS011;25061;51.954;6.996;2023-08-21T18:53:05;7.72;;;2.90;;
39344;SDS011;25061;51.954;6.996;2023-08-21T18:55:31;12.55;;;3.40;;
39344;SDS011;25061;51.954;6.996;2023-08-21T18:58:00;11.73;;;3.97;;
39344;SDS011;25061;51.954;6.996;2023-08-21T19:00:26;10.55;;;3.47;;
39344;SDS011;25061;51.954;6.996;2023-08-21T19:02:52;9.73;;;3.33;;
39344;SDS011;25061;51.954;6.996;2023-08-21T19:05:19;10.18;;;3.50;;
39344;SDS011;25061;51.954;6.996;2023-08-21T19:07:48;12.27;;;4.13;;
39344;SDS011;25061;51.954;6.996;2023-08-21T19:10:14;12.75;;;3.95;;
39344;SDS011;25061;51.954;6.996;2023-08-21T19:12:40;8.85;;;3.70;;
39344;SDS011;25061;51.954;6.996;2023-08-21T19:15:07;10.43;;;3.97;;